KR-0452 weather

Tusong Bando Heliport
Busan, Busan Gwang'yeogsi, South Korea

Public forecast

Using degrees Celsius for public forecast. Weather courtesy of forecast.io.

METAR (pilot weather report)

Closest report is Gimhae International Airport, 8.5 nm (15.8 km) NNW. Retrieved 2019/07/23 07:00 UTC (3 minutes ago):

RKPK 230700Z 18014KT 9999 FEW030 SCT200 29/25 Q1004

TAF (pilot weather forecast)

Closest forecast is Gimhae International Airport, 8.5 nm (15.8 km) NNW. Retrieved 2019/07/23 06:00 UTC (1 hour ago):

TAF RKPK 230500Z 2306/2412 22012KT 9999 FEW030 BKN200 TN25/2321Z TX33/2406Z BECMG 2311/2312 18006KT BECMG 2317/2318 4800 BR BKN015 BKN200 BECMG 2401/2402 18012KT 9999 NSW BKN030 BKN200